createdAt,value
2023-01-30T00:01:00.259Z,23.08
2023-01-30T00:03:28.360Z,21.92
2023-01-30T00:05:55.312Z,21.20
2023-01-30T00:08:22.288Z,17.95
2023-01-30T00:10:49.104Z,24.50
2023-01-30T00:13:16.154Z,22.17
2023-01-30T00:15:43.153Z,17.50
2023-01-30T00:18:10.152Z,21.90
2023-01-30T00:20:38.259Z,19.48
2023-01-30T00:23:05.399Z,22.33
2023-01-30T00:25:32.287Z,12.95
2023-01-30T00:28:00.315Z,18.30
2023-01-30T00:30:27.639Z,22.60
2023-01-30T00:32:55.538Z,21.67
2023-01-30T00:35:22.565Z,23.45
2023-01-30T00:37:50.626Z,23.85
2023-01-30T00:40:17.996Z,15.97
2023-01-30T00:42:44.807Z,19.23
2023-01-30T00:45:12.454Z,26.05
2023-01-30T00:47:39.250Z,22.58
2023-01-30T00:50:07.080Z,19.88
2023-01-30T00:52:33.849Z,19.25
2023-01-30T00:55:01.944Z,20.35
2023-01-30T00:57:28.671Z,23.70
2023-01-30T00:59:55.710Z,19.05
2023-01-30T01:02:22.531Z,17.65
2023-01-30T01:04:49.291Z,15.00
2023-01-30T01:07:16.290Z,14.50
2023-01-30T01:09:43.008Z,24.08
2023-01-30T01:12:11.060Z,22.20
2023-01-30T01:14:37.816Z,21.57
2023-01-30T01:17:04.816Z,21.92
2023-01-30T01:19:31.655Z,21.20
2023-01-30T01:21:58.387Z,20.80
2023-01-30T01:24:25.159Z,22.10
2023-01-30T01:26:52.138Z,17.80
2023-01-30T01:29:20.280Z,19.15
2023-01-30T01:31:47.020Z,16.17
2023-01-30T01:34:13.819Z,14.85
2023-01-30T01:36:56.407Z,16.40
2023-01-30T01:39:23.486Z,14.27
2023-01-30T01:41:50.390Z,23.85
2023-01-30T01:44:17.462Z,24.63
2023-01-30T01:46:50.181Z,13.40
2023-01-30T01:49:21.327Z,17.52
2023-01-30T01:51:53.506Z,20.98
2023-01-30T01:54:24.999Z,16.42
2023-01-30T01:56:52.045Z,13.20
2023-01-30T01:59:24.865Z,20.10
2023-01-30T02:01:55.343Z,21.25
2023-01-30T02:04:22.516Z,18.13
2023-01-30T02:06:49.343Z,21.40
2023-01-30T02:09:16.082Z,14.27
2023-01-30T02:11:48.531Z,10.18
2023-01-30T02:14:16.934Z,15.05
2023-01-30T02:16:45.923Z,14.75
2023-01-30T02:22:15.549Z,9.13
2023-01-30T02:25:14.909Z,10.00
2023-01-30T02:28:10.938Z,11.10
2023-01-30T02:31:00.630Z,8.77
2023-01-30T02:33:36.695Z,9.80
2023-01-30T02:36:11.008Z,7.95
2023-01-30T02:38:46.667Z,10.10
2023-01-30T02:41:22.276Z,10.02
2023-01-30T02:43:58.407Z,10.55
2023-01-30T02:46:33.715Z,10.50
2023-01-30T02:49:06.663Z,10.45
2023-01-30T02:51:36.602Z,10.00
2023-01-30T02:54:05.983Z,9.48
2023-01-30T02:56:44.190Z,8.23
2023-01-30T02:59:12.019Z,11.27
2023-01-30T03:02:03.332Z,9.32
2023-01-30T03:04:40.606Z,10.50
2023-01-30T03:07:20.830Z,9.52
2023-01-30T03:09:58.037Z,7.90
2023-01-30T03:12:37.717Z,10.35
2023-01-30T03:15:10.459Z,9.25
2023-01-30T03:17:43.280Z,8.65
2023-01-30T03:20:11.567Z,8.85
2023-01-30T03:22:38.280Z,9.98
2023-01-30T03:25:06.056Z,7.90
2023-01-30T03:27:34.303Z,9.23
2023-01-30T03:30:01.061Z,7.72
2023-01-30T03:32:27.794Z,9.73
2023-01-30T03:34:55.866Z,6.88
2023-01-30T03:37:22.613Z,9.20
2023-01-30T03:39:49.495Z,7.43
2023-01-30T03:42:16.293Z,8.32
2023-01-30T03:44:43.022Z,8.13
2023-01-30T03:47:09.783Z,8.07
2023-01-30T03:49:36.498Z,10.07
2023-01-30T03:52:05.033Z,8.90
2023-01-30T03:54:31.781Z,6.72
2023-01-30T03:56:58.519Z,7.40
2023-01-30T03:59:25.315Z,9.05
2023-01-30T04:01:52.069Z,7.75
2023-01-30T04:04:18.854Z,8.38
2023-01-30T04:06:45.624Z,7.18
2023-01-30T04:09:13.717Z,8.30
2023-01-30T04:11:40.530Z,8.10
2023-01-30T04:14:07.298Z,8.50
2023-01-30T04:16:34.226Z,8.40
2023-01-30T04:19:01.105Z,7.57
2023-01-30T04:21:27.862Z,5.25
2023-01-30T04:23:54.624Z,7.65
2023-01-30T04:26:22.863Z,7.25
2023-01-30T04:28:49.631Z,6.03
2023-01-30T04:31:16.409Z,7.18
2023-01-30T04:33:43.210Z,5.28
2023-01-30T04:36:10.746Z,7.25
2023-01-30T04:38:38.239Z,7.35
2023-01-30T04:41:05.544Z,6.00
2023-01-30T04:43:33.702Z,7.15
2023-01-30T04:46:00.407Z,6.13
2023-01-30T04:48:27.703Z,6.72
2023-01-30T04:50:55.853Z,5.53
2023-01-30T04:53:24.624Z,7.43
2023-01-30T04:55:51.486Z,6.28
2023-01-30T04:58:18.474Z,6.15
2023-01-30T05:00:47.497Z,6.55
2023-01-30T05:05:40.990Z,6.68
2023-01-30T05:08:07.779Z,5.95
2023-01-30T05:10:34.517Z,5.03
2023-01-30T05:13:05.352Z,6.03
2023-01-30T05:15:32.429Z,5.97
2023-01-30T05:18:00.806Z,5.40
2023-01-30T05:20:27.824Z,5.90
2023-01-30T05:22:54.746Z,5.75
2023-01-30T05:25:21.653Z,5.72
2023-01-30T05:27:48.379Z,5.80
2023-01-30T05:30:15.329Z,4.10
2023-01-30T05:32:42.076Z,5.47
2023-01-30T05:35:10.536Z,7.07
2023-01-30T05:37:37.366Z,5.10
2023-01-30T05:40:04.986Z,4.57
2023-01-30T05:42:31.743Z,5.05
2023-01-30T05:44:58.469Z,5.03
2023-01-30T05:47:25.198Z,3.47
2023-01-30T05:49:51.915Z,4.47
2023-01-30T05:52:20.009Z,3.50
2023-01-30T05:54:46.801Z,2.37
2023-01-30T05:57:13.598Z,1.98
2023-01-30T05:59:40.333Z,2.83
2023-01-30T06:02:07.312Z,2.53
2023-01-30T06:04:34.185Z,2.30
2023-01-30T06:07:00.901Z,2.38
2023-01-30T06:09:28.999Z,2.67
2023-01-30T06:11:55.787Z,2.20
2023-01-30T06:14:22.507Z,2.67
2023-01-30T06:16:49.479Z,2.95
2023-01-30T06:19:16.219Z,2.22
2023-01-30T06:21:42.935Z,2.92
2023-01-30T06:24:09.690Z,2.03
2023-01-30T06:26:37.787Z,2.40
2023-01-30T06:29:04.548Z,2.40
2023-01-30T06:31:31.361Z,2.90
2023-01-30T06:33:58.131Z,2.40
2023-01-30T06:36:26.382Z,1.88
2023-01-30T06:38:53.133Z,2.05
2023-01-30T06:41:20.167Z,2.20
2023-01-30T06:43:48.240Z,2.03
2023-01-30T06:46:15.018Z,2.23
2023-01-30T06:48:41.766Z,2.50
2023-01-30T06:51:08.500Z,2.95
2023-01-30T06:53:35.322Z,2.30
2023-01-30T06:56:02.360Z,2.13
2023-01-30T06:58:29.225Z,2.53
2023-01-30T07:00:57.337Z,3.40
2023-01-30T07:03:24.202Z,3.10
2023-01-30T07:05:51.274Z,1.70
2023-01-30T07:08:18.060Z,3.58
2023-01-30T07:10:45.437Z,2.45
2023-01-30T07:13:12.419Z,2.47
2023-01-30T07:15:39.233Z,2.55
2023-01-30T07:18:07.364Z,2.22
2023-01-30T07:20:34.342Z,1.97
2023-01-30T07:23:01.227Z,1.83
2023-01-30T07:25:29.230Z,2.38
2023-01-30T07:27:57.956Z,2.13
2023-01-30T07:30:24.748Z,2.97
2023-01-30T07:32:51.625Z,2.20
2023-01-30T07:35:20.556Z,3.15
2023-01-30T07:40:14.966Z,2.97
2023-01-30T07:42:41.973Z,2.78
2023-01-30T07:45:09.809Z,1.73
2023-01-30T07:47:37.053Z,2.85
2023-01-30T07:50:04.616Z,1.92
2023-01-30T07:52:33.729Z,1.90
2023-01-30T07:55:01.564Z,2.00
2023-01-30T07:57:29.496Z,2.87
2023-01-30T07:59:56.304Z,2.63
2023-01-30T08:02:23.140Z,2.80
2023-01-30T08:04:49.930Z,3.00
2023-01-30T08:07:16.698Z,2.42
2023-01-30T08:09:44.938Z,2.53
2023-01-30T08:12:11.678Z,2.20
2023-01-30T08:14:38.436Z,2.25
2023-01-30T08:17:05.141Z,2.42
2023-01-30T08:19:31.873Z,2.08
2023-01-30T08:21:59.401Z,1.90
2023-01-30T08:24:26.187Z,2.78
2023-01-30T08:26:54.255Z,1.95
2023-01-30T08:29:20.991Z,2.63
2023-01-30T08:31:48.842Z,3.28
2023-01-30T08:34:15.634Z,1.85
2023-01-30T08:36:42.393Z,3.42
2023-01-30T08:39:09.092Z,2.50
2023-01-30T08:41:35.854Z,1.92
2023-01-30T08:44:04.313Z,2.72
2023-01-30T08:46:31.222Z,2.38
2023-01-30T08:48:57.993Z,1.60
2023-01-30T08:51:24.750Z,2.38
2023-01-30T08:53:51.856Z,2.53
2023-01-30T08:56:19.385Z,2.00
2023-01-30T08:58:46.158Z,2.17
2023-01-30T09:01:14.407Z,1.67
2023-01-30T09:03:41.462Z,2.13
2023-01-30T09:06:08.671Z,1.55
2023-01-30T09:08:35.571Z,2.35
2023-01-30T09:11:04.034Z,3.03
2023-01-30T09:13:31.873Z,1.80
2023-01-30T09:15:58.925Z,2.58
2023-01-30T09:18:27.102Z,1.77
2023-01-30T09:21:02.603Z,2.67
2023-01-30T09:23:29.745Z,1.92
2023-01-30T09:25:56.729Z,2.55
2023-01-30T09:28:23.536Z,2.42
2023-01-30T09:30:52.610Z,2.35
2023-01-30T09:33:19.461Z,1.95
2023-01-30T09:35:48.733Z,2.10
2023-01-30T09:38:15.976Z,3.05
2023-01-30T09:40:53.527Z,1.90
2023-01-30T09:43:33.565Z,1.52
2023-01-30T09:46:11.088Z,2.50
2023-01-30T09:48:48.728Z,2.25
2023-01-30T09:51:30.970Z,3.13
2023-01-30T09:54:10.922Z,1.80
2023-01-30T09:56:37.945Z,2.20
2023-01-30T09:59:05.341Z,2.03
2023-01-30T10:01:40.583Z,2.75
2023-01-30T10:04:14.600Z,1.73
2023-01-30T10:06:54.220Z,2.00
2023-01-30T10:09:33.198Z,2.05
2023-01-30T10:15:02.283Z,1.67
2023-01-30T10:17:38.244Z,1.63
2023-01-30T10:20:21.467Z,1.35
2023-01-30T10:23:04.546Z,2.90
2023-01-30T10:25:34.291Z,1.90
2023-01-30T10:28:06.225Z,2.67
2023-01-30T10:30:33.691Z,1.85
2023-01-30T10:33:06.055Z,1.73
2023-01-30T10:35:36.677Z,2.17
2023-01-30T10:38:12.519Z,2.40
2023-01-30T10:40:42.856Z,1.90
2023-01-30T10:43:16.515Z,2.00
2023-01-30T10:45:53.320Z,2.33
2023-01-30T10:48:46.357Z,2.33
2023-01-30T10:51:24.922Z,1.63
2023-01-30T10:53:58.001Z,1.65
2023-01-30T10:56:32.814Z,3.00
2023-01-30T10:59:07.113Z,1.90
2023-01-30T11:01:39.676Z,2.35
2023-01-30T11:04:19.537Z,2.30
2023-01-30T11:06:46.686Z,2.33
2023-01-30T11:09:14.783Z,2.50
2023-01-30T11:11:49.479Z,2.30
2023-01-30T11:14:16.282Z,2.05
2023-01-30T11:16:46.334Z,1.98
2023-01-30T11:19:20.011Z,2.50
2023-01-30T11:21:49.754Z,2.75
2023-01-30T11:24:21.219Z,2.00
2023-01-30T11:26:48.679Z,2.60
2023-01-30T11:29:25.123Z,2.60
2023-01-30T11:31:52.948Z,2.70
2023-01-30T11:34:21.692Z,2.05
2023-01-30T11:36:49.795Z,3.58
2023-01-30T11:39:23.676Z,2.10
2023-01-30T11:42:02.444Z,2.83
2023-01-30T11:44:31.239Z,2.50
2023-01-30T11:47:01.723Z,2.03
2023-01-30T11:49:48.254Z,2.88
2023-01-30T11:52:25.290Z,2.92
2023-01-30T11:54:58.544Z,2.35
2023-01-30T11:57:25.465Z,2.55
2023-01-30T11:59:56.715Z,2.15
2023-01-30T12:02:26.393Z,2.22
2023-01-30T12:04:56.824Z,2.20
2023-01-30T12:07:25.535Z,2.75
2023-01-30T12:09:55.722Z,3.00
2023-01-30T12:12:31.684Z,2.03
2023-01-30T12:15:09.347Z,2.50
2023-01-30T12:17:44.473Z,1.90
2023-01-30T12:20:17.933Z,1.98
2023-01-30T12:22:49.636Z,2.10
2023-01-30T12:25:23.319Z,3.50
2023-01-30T12:28:01.315Z,3.28
2023-01-30T12:30:35.763Z,2.90
2023-01-30T12:33:04.680Z,1.95
2023-01-30T12:38:18.034Z,2.17
2023-01-30T12:40:56.043Z,2.22
2023-01-30T12:43:39.284Z,1.80
2023-01-30T12:46:15.500Z,2.40
2023-01-30T12:49:11.837Z,1.95
2023-01-30T12:52:01.067Z,2.30
2023-01-30T12:54:41.165Z,2.65
2023-01-30T12:57:19.096Z,2.60
2023-01-30T12:59:54.581Z,1.77
2023-01-30T13:02:42.252Z,1.88
2023-01-30T13:05:20.283Z,2.03
2023-01-30T13:08:00.607Z,2.00
2023-01-30T13:10:34.470Z,2.40
2023-01-30T13:13:14.848Z,2.13
2023-01-30T13:15:52.369Z,2.47
2023-01-30T13:18:25.708Z,2.13
2023-01-30T13:21:01.492Z,2.97
2023-01-30T13:23:37.775Z,1.75
2023-01-30T13:26:07.591Z,2.30
2023-01-30T13:28:38.249Z,3.08
2023-01-30T13:31:08.246Z,2.08
2023-01-30T13:33:38.300Z,2.53
2023-01-30T13:36:12.535Z,2.30
2023-01-30T13:38:44.788Z,2.83
2023-01-30T13:41:14.872Z,2.17
2023-01-30T13:43:46.741Z,2.10
2023-01-30T13:46:19.500Z,2.05
2023-01-30T13:48:54.841Z,2.20
2023-01-30T13:51:41.451Z,2.50
2023-01-30T13:54:25.171Z,1.98
2023-01-30T13:56:58.329Z,2.33
2023-01-30T13:59:44.495Z,2.42
2023-01-30T14:02:18.786Z,1.90
2023-01-30T14:04:47.836Z,2.47
2023-01-30T14:09:46.776Z,2.50
2023-01-30T14:12:19.080Z,2.30
2023-01-30T14:15:01.802Z,2.40
2023-01-30T14:17:28.778Z,2.10
2023-01-30T14:20:00.551Z,2.83
2023-01-30T14:22:33.507Z,2.30
2023-01-30T14:25:42.812Z,2.30
2023-01-30T14:28:49.287Z,3.33
2023-01-30T14:31:52.899Z,1.95
2023-01-30T14:34:49.338Z,3.15
2023-01-30T14:37:44.649Z,2.85
2023-01-30T14:40:36.247Z,2.00
2023-01-30T14:43:37.433Z,2.10
2023-01-30T14:46:08.363Z,2.92
2023-01-30T14:48:42.923Z,2.05
2023-01-30T14:51:19.716Z,2.45
2023-01-30T14:53:53.054Z,3.00
2023-01-30T14:56:37.235Z,2.95
2023-01-30T14:59:08.353Z,2.38
2023-01-30T15:01:59.440Z,2.50
2023-01-30T15:04:31.608Z,2.85
2023-01-30T15:07:05.409Z,2.50
2023-01-30T15:09:32.742Z,2.65
2023-01-30T15:12:20.582Z,2.65
2023-01-30T15:15:01.154Z,3.53
2023-01-30T15:17:39.496Z,2.83
2023-01-30T15:20:28.971Z,3.17
2023-01-30T15:23:31.450Z,2.45
2023-01-30T15:26:14.513Z,3.28
2023-01-30T15:28:51.904Z,2.45
2023-01-30T15:31:21.827Z,2.28
2023-01-30T15:33:50.515Z,2.92
2023-01-30T15:36:26.045Z,3.00
2023-01-30T15:39:00.659Z,2.97
2023-01-30T15:41:32.210Z,2.95
2023-01-30T15:44:32.887Z,2.92
2023-01-30T15:47:20.846Z,2.42
2023-01-30T15:49:57.030Z,2.20
2023-01-30T15:52:28.407Z,2.42
2023-01-30T15:54:59.268Z,2.47
2023-01-30T15:57:30.969Z,2.65
2023-01-30T15:59:58.441Z,2.83
2023-01-30T16:02:29.912Z,1.85
2023-01-30T16:05:14.198Z,2.17
2023-01-30T16:07:41.356Z,2.45
2023-01-30T16:10:14.807Z,1.95
2023-01-30T16:12:41.633Z,2.25
2023-01-30T16:18:13.679Z,2.33
2023-01-30T16:23:37.169Z,2.35
2023-01-30T16:26:08.632Z,2.80
2023-01-30T16:28:35.710Z,2.03
2023-01-30T16:31:04.887Z,3.75
2023-01-30T16:33:32.246Z,2.33
2023-01-30T16:35:59.043Z,3.00
2023-01-30T16:38:36.274Z,2.35
2023-01-30T16:41:03.246Z,2.70
2023-01-30T16:43:32.705Z,3.10
2023-01-30T16:46:45.579Z,3.45
2023-01-30T16:49:16.677Z,3.22
2023-01-30T16:51:43.748Z,3.03
2023-01-30T16:54:19.172Z,2.50
2023-01-30T16:56:48.218Z,3.15
2023-01-30T17:01:46.964Z,2.53
2023-01-30T17:04:20.182Z,3.72
2023-01-30T17:06:52.883Z,2.40
2023-01-30T17:09:36.290Z,2.15
2023-01-30T17:12:34.387Z,2.85
2023-01-30T17:15:34.417Z,1.75
2023-01-30T17:18:02.037Z,1.40
2023-01-30T17:20:37.272Z,1.77
2023-01-30T17:23:08.818Z,2.10
2023-01-30T17:25:39.221Z,1.45
2023-01-30T17:28:06.930Z,1.95
2023-01-30T17:30:35.371Z,2.38
2023-01-30T17:33:02.171Z,1.65
2023-01-30T17:35:28.930Z,1.90
2023-01-30T17:38:04.825Z,1.45
2023-01-30T17:40:35.281Z,2.25
2023-01-30T17:43:02.332Z,2.67
2023-01-30T17:45:29.100Z,2.40
2023-01-30T17:47:57.517Z,2.03
2023-01-30T17:50:24.391Z,2.55
2023-01-30T17:52:51.210Z,2.30
2023-01-30T17:55:18.334Z,2.53
2023-01-30T17:57:47.805Z,2.45
2023-01-30T18:00:17.643Z,2.45
2023-01-30T18:02:45.053Z,3.10
2023-01-30T18:05:13.569Z,2.70
2023-01-30T18:07:40.852Z,1.98
2023-01-30T18:10:11.818Z,2.22
2023-01-30T18:12:39.057Z,2.72
2023-01-30T18:15:06.993Z,2.05
2023-01-30T18:17:35.096Z,2.25
2023-01-30T18:20:01.873Z,1.93
2023-01-30T18:22:29.987Z,1.80
2023-01-30T18:24:56.963Z,2.70
2023-01-30T18:27:24.111Z,1.70
2023-01-30T18:29:51.370Z,3.03
2023-01-30T18:32:20.754Z,1.90
2023-01-30T18:34:47.710Z,3.83
2023-01-30T18:37:14.577Z,2.60
2023-01-30T18:39:42.703Z,2.08
2023-01-30T18:42:13.594Z,1.97
2023-01-30T18:44:40.345Z,2.50
2023-01-30T18:47:07.143Z,2.67
2023-01-30T18:49:33.876Z,2.28
2023-01-30T18:52:00.622Z,1.92
2023-01-30T18:54:27.363Z,2.22
2023-01-30T18:56:55.756Z,2.28
2023-01-30T18:59:23.859Z,1.98
2023-01-30T19:01:50.702Z,2.30
2023-01-30T19:04:17.539Z,2.05
2023-01-30T19:06:44.438Z,2.00
2023-01-30T19:09:13.013Z,2.33
2023-01-30T19:11:39.790Z,2.95
2023-01-30T19:14:08.985Z,2.85
2023-01-30T19:16:38.769Z,2.10
2023-01-30T19:19:06.085Z,2.15
2023-01-30T19:21:33.708Z,2.47
2023-01-30T19:24:02.727Z,2.50
2023-01-30T19:28:56.595Z,2.58
2023-01-30T19:31:26.483Z,1.48
2023-01-30T19:33:54.937Z,2.58
2023-01-30T19:36:23.188Z,3.00
2023-01-30T19:38:51.051Z,2.80
2023-01-30T19:41:19.191Z,2.28
2023-01-30T19:43:46.692Z,2.93
2023-01-30T19:46:13.563Z,3.00
2023-01-30T19:48:42.349Z,2.95
2023-01-30T19:51:13.309Z,3.55
2023-01-30T19:53:40.930Z,3.97
2023-01-30T19:56:08.894Z,4.43
2023-01-30T19:58:35.726Z,5.10
2023-01-30T20:01:07.057Z,3.28
2023-01-30T20:03:36.355Z,4.10
2023-01-30T20:06:11.018Z,4.07
2023-01-30T20:08:39.291Z,2.72
2023-01-30T20:11:07.599Z,3.25
2023-01-30T20:13:37.162Z,3.92
2023-01-30T20:16:06.519Z,3.97
2023-01-30T20:18:35.074Z,3.13
2023-01-30T20:21:07.873Z,3.25
2023-01-30T20:23:35.642Z,2.90
2023-01-30T20:26:07.371Z,4.32
2023-01-30T20:28:34.962Z,2.85
2023-01-30T20:31:08.048Z,3.42
2023-01-30T20:33:35.179Z,3.95
2023-01-30T20:36:02.559Z,3.90
2023-01-30T20:38:31.916Z,3.40
2023-01-30T20:41:02.889Z,3.33
2023-01-30T20:43:31.233Z,2.30
2023-01-30T20:46:05.943Z,2.88
2023-01-30T20:48:32.965Z,3.25
2023-01-30T20:51:04.125Z,2.92
2023-01-30T20:53:32.656Z,2.85
2023-01-30T20:56:02.694Z,2.80
2023-01-30T20:58:30.426Z,2.67
2023-01-30T21:01:05.847Z,2.13
2023-01-30T21:03:32.596Z,3.63
2023-01-30T21:05:59.998Z,2.55
2023-01-30T21:08:27.203Z,3.10
2023-01-30T21:11:02.296Z,2.38
2023-01-30T21:13:29.210Z,2.40
2023-01-30T21:16:01.525Z,3.30
2023-01-30T21:18:30.247Z,2.88
2023-01-30T21:20:57.303Z,2.17
2023-01-30T21:23:24.075Z,2.38
2023-01-30T21:25:50.979Z,2.50
2023-01-30T21:28:19.253Z,2.65
2023-01-30T21:30:46.099Z,2.63
2023-01-30T21:33:13.169Z,2.58
2023-01-30T21:35:40.271Z,3.05
2023-01-30T21:38:07.003Z,3.17
2023-01-30T21:40:33.776Z,3.28
2023-01-30T21:43:00.510Z,3.42
2023-01-30T21:45:28.768Z,2.90
2023-01-30T21:47:55.523Z,3.10
2023-01-30T21:50:22.293Z,4.05
2023-01-30T21:52:49.057Z,4.22
2023-01-30T21:55:15.909Z,3.08
2023-01-30T21:57:42.615Z,2.72
2023-01-30T22:00:10.665Z,3.20
2023-01-30T22:02:38.822Z,2.87
2023-01-30T22:05:06.584Z,2.83
2023-01-30T22:07:33.294Z,3.40
2023-01-30T22:10:00.049Z,4.35
2023-01-30T22:12:26.822Z,3.25
2023-01-30T22:14:53.609Z,2.38
2023-01-30T22:17:20.473Z,2.65
2023-01-30T22:19:48.595Z,2.65
2023-01-30T22:22:15.377Z,2.20
2023-01-30T22:24:42.155Z,3.60
2023-01-30T22:27:08.939Z,2.35
2023-01-30T22:29:36.147Z,2.50
2023-01-30T22:32:03.170Z,2.42
2023-01-30T22:34:30.031Z,2.78
2023-01-30T22:36:58.119Z,3.30
2023-01-30T22:39:24.955Z,1.83
2023-01-30T22:41:51.721Z,2.28
2023-01-30T22:44:18.500Z,1.90
2023-01-30T22:46:45.307Z,2.97
2023-01-30T22:49:12.096Z,2.92
2023-01-30T22:51:40.876Z,3.35
2023-01-30T22:54:12.109Z,3.90
2023-01-30T22:56:40.796Z,3.53
2023-01-30T22:59:08.532Z,4.53
2023-01-30T23:01:37.161Z,1.65
2023-01-30T23:04:06.364Z,3.78
2023-01-30T23:06:33.754Z,4.07
2023-01-30T23:09:00.976Z,2.95
2023-01-30T23:11:34.593Z,3.40
2023-01-30T23:14:07.397Z,2.80
2023-01-30T23:16:36.021Z,2.67
2023-01-30T23:19:04.078Z,4.00
2023-01-30T23:21:32.535Z,2.92
2023-01-30T23:24:00.860Z,3.35
2023-01-30T23:26:32.154Z,2.13
2023-01-30T23:29:00.889Z,3.17
2023-01-30T23:31:28.793Z,2.38
2023-01-30T23:33:57.189Z,2.70
2023-01-30T23:36:24.330Z,2.70
2023-01-30T23:38:52.348Z,2.47
2023-01-30T23:41:22.045Z,2.90
2023-01-30T23:43:50.941Z,3.60
2023-01-30T23:46:20.230Z,2.50
2023-01-30T23:48:48.985Z,2.75
2023-01-30T23:51:17.599Z,2.83
2023-01-30T23:53:45.131Z,2.47
2023-01-30T23:56:14.143Z,2.78
2023-01-30T23:58:42.025Z,2.30
